Time;durP1;ratioP1;P1;durP2;ratioP2;P2;SDS_P1;SDS_P2;PMS_P1;PMS_P2;Temp;Humidity;BMP_temperature;BMP_pressure;BME280_temperature;BME280_humidity;BME280_pressure;Samples;Min_cycle;Max_cycle;Signal;HPM_P1;HPM_P2
2022/07/01 00:00:15;;;;;;;26.42;13.32;;;;;;;;;;5010725;28;97266;-73
2022/07/01 00:02:42;;;;;;;25.05;14.10;;;;;;;;;;5005899;28;95551;-73
2022/07/01 00:05:08;;;;;;;26.65;13.98;;;;;;;;;;5007663;28;97125;-73
2022/07/01 00:07:35;;;;;;;26.48;14.48;;;;;;;;;;5004430;28;97699;-73
2022/07/01 00:10:02;;;;;;;25.02;14.05;;;;;;;;;;5006407;28;96274;-73
2022/07/01 00:12:29;;;;;;;25.95;14.20;;;;;;;;;;5011121;28;97592;-73
2022/07/01 00:14:55;;;;;;;27.40;15.02;;;;;;;;;;5010806;28;97893;-73
2022/07/01 00:17:22;;;;;;;27.23;15.45;;;;;;;;;;5005765;28;95514;-73
2022/07/01 00:19:50;;;;;;;31.55;16.35;;;;;;;;;;4992936;28;96315;-73
2022/07/01 00:22:17;;;;;;;33.78;16.92;;;;;;;;;;4993990;28;97963;-74
2022/07/01 00:24:46;;;;;;;31.00;16.20;;;;;;;;;;4990340;28;96441;-73
2022/07/01 00:27:15;;;;;;;36.05;16.65;;;;;;;;;;5002856;28;97954;-73
2022/07/01 00:29:42;;;;;;;34.83;16.55;;;;;;;;;;5010402;28;95485;-73
2022/07/01 00:32:09;;;;;;;29.48;16.35;;;;;;;;;;5010705;28;97509;-73
2022/07/01 00:34:36;;;;;;;31.38;16.42;;;;;;;;;;5010324;28;96762;-73
2022/07/01 00:37:02;;;;;;;29.83;15.38;;;;;;;;;;5007369;28;95660;-73
2022/07/01 00:39:31;;;;;;;28.90;15.55;;;;;;;;;;5007831;28;96099;-73
2022/07/01 00:41:59;;;;;;;30.20;15.68;;;;;;;;;;5010529;28;98040;-73
2022/07/01 00:44:26;;;;;;;24.58;14.68;;;;;;;;;;5012654;28;95900;-73
2022/07/01 00:46:53;;;;;;;32.13;15.18;;;;;;;;;;5008475;28;96920;-73
2022/07/01 00:49:20;;;;;;;27.73;15.10;;;;;;;;;;5007310;28;96947;-73
2022/07/01 00:51:47;;;;;;;29.25;15.40;;;;;;;;;;5010616;28;97429;-73
2022/07/01 00:54:14;;;;;;;36.42;17.88;;;;;;;;;;5009045;28;97711;-73
2022/07/01 00:56:40;;;;;;;34.55;17.80;;;;;;;;;;5010504;28;95516;-73
2022/07/01 00:59:07;;;;;;;39.67;19.42;;;;;;;;;;5009616;28;97660;-73
2022/07/01 01:01:34;;;;;;;40.97;20.27;;;;;;;;;;5008891;28;98094;-74
2022/07/01 01:04:01;;;;;;;39.67;20.85;;;;;;;;;;5009717;28;95421;-73
2022/07/01 01:06:27;;;;;;;39.92;21.73;;;;;;;;;;5011344;28;96378;-73
2022/07/01 01:08:54;;;;;;;39.35;21.25;;;;;;;;;;5010386;28;95357;-73
2022/07/01 01:11:21;;;;;;;44.22;22.63;;;;;;;;;;5009155;28;96369;-73
2022/07/01 01:13:47;;;;;;;42.13;23.67;;;;;;;;;;5009801;28;97638;-73
2022/07/01 01:16:20;;;;;;;46.88;23.98;;;;;;;;;;5004135;28;95408;-73
2022/07/01 01:18:47;;;;;;;46.45;24.48;;;;;;;;;;4997553;28;96568;-73
2022/07/01 01:21:14;;;;;;;43.30;23.83;;;;;;;;;;5008908;28;96965;-73
2022/07/01 01:23:41;;;;;;;39.70;23.52;;;;;;;;;;5008992;28;95442;-73
2022/07/01 01:26:18;;;;;;;45.90;25.85;;;;;;;;;;5007582;28;97344;-73
2022/07/01 01:28:44;;;;;;;47.42;24.95;;;;;;;;;;5012847;28;97923;-73
2022/07/01 01:31:11;;;;;;;48.85;24.95;;;;;;;;;;5008845;28;96776;-73
2022/07/01 01:33:38;;;;;;;49.10;26.77;;;;;;;;;;5008342;28;96645;-73
2022/07/01 01:36:06;;;;;;;42.50;24.92;;;;;;;;;;5005538;28;95833;-73
2022/07/01 01:38:33;;;;;;;45.08;25.92;;;;;;;;;;5008566;28;97570;-73
2022/07/01 01:41:00;;;;;;;50.58;26.02;;;;;;;;;;5008695;28;100555;-72
2022/07/01 01:43:26;;;;;;;47.78;25.45;;;;;;;;;;5009292;28;96142;-73
2022/07/01 01:45:53;;;;;;;46.85;25.73;;;;;;;;;;5007713;28;96849;-73
2022/07/01 01:48:19;;;;;;;48.20;25.83;;;;;;;;;;5008095;28;97514;-73
2022/07/01 01:50:46;;;;;;;50.30;26.00;;;;;;;;;;5009121;28;97174;-72
2022/07/01 01:53:12;;;;;;;49.25;26.17;;;;;;;;;;5008375;28;98064;-73
2022/07/01 01:55:39;;;;;;;49.60;26.67;;;;;;;;;;5006456;28;95385;-73
2022/07/01 01:58:08;;;;;;;48.83;27.05;;;;;;;;;;5008487;28;96482;-73
2022/07/01 02:00:34;;;;;;;53.40;26.75;;;;;;;;;;5009305;28;97657;-73
2022/07/01 02:03:01;;;;;;;51.30;27.15;;;;;;;;;;5009228;28;95048;-73
2022/07/01 02:05:27;;;;;;;48.53;26.67;;;;;;;;;;5005388;28;97505;-72
2022/07/01 02:07:54;;;;;;;46.22;25.92;;;;;;;;;;5009431;28;97817;-73
2022/07/01 02:10:21;;;;;;;44.00;25.65;;;;;;;;;;5011905;28;95598;-73
2022/07/01 02:12:47;;;;;;;47.47;25.30;;;;;;;;;;5007805;28;97836;-73
2022/07/01 02:15:14;;;;;;;48.15;25.08;;;;;;;;;;5005495;28;95404;-73
2022/07/01 02:17:40;;;;;;;38.55;20.05;;;;;;;;;;5006971;28;98640;-74
2022/07/01 02:20:07;;;;;;;45.97;23.42;;;;;;;;;;4997261;28;97934;-73
2022/07/01 02:22:34;;;;;;;48.25;24.33;;;;;;;;;;5006663;28;95447;-73
2022/07/01 02:25:00;;;;;;;47.95;26.05;;;;;;;;;;5007855;28;97228;-73
2022/07/01 02:27:26;;;;;;;45.85;24.25;;;;;;;;;;5003662;28;96573;-73
2022/07/01 02:29:53;;;;;;;48.08;24.45;;;;;;;;;;4993687;28;95808;-73
2022/07/01 02:32:20;;;;;;;46.78;25.40;;;;;;;;;;5009534;28;96550;-73
2022/07/01 02:34:47;;;;;;;52.08;26.20;;;;;;;;;;5008666;28;95295;-73
2022/07/01 02:37:13;;;;;;;47.28;24.50;;;;;;;;;;5008203;28;97457;-73
2022/07/01 02:39:40;;;;;;;52.53;25.63;;;;;;;;;;5007116;28;96930;-73
2022/07/01 02:44:53;;;;;;;51.50;25.27;;;;;;;;;;5008419;28;97381;-73
2022/07/01 02:47:23;;;;;;;60.92;27.02;;;;;;;;;;5008413;28;96956;-73
2022/07/01 02:49:51;;;;;;;56.90;25.63;;;;;;;;;;5003028;28;95743;-73
2022/07/01 02:52:18;;;;;;;52.65;25.63;;;;;;;;;;5006860;28;97537;-73
2022/07/01 02:54:44;;;;;;;52.78;24.17;;;;;;;;;;5010766;28;97948;-73
2022/07/01 02:57:11;;;;;;;53.45;24.40;;;;;;;;;;5006815;28;97187;-73
2022/07/01 02:59:37;;;;;;;48.25;23.67;;;;;;;;;;5006597;28;98000;-73
2022/07/01 03:02:04;;;;;;;48.05;23.30;;;;;;;;;;5008547;28;95377;-73
2022/07/01 03:04:30;;;;;;;47.20;23.73;;;;;;;;;;5007119;28;96402;-73
2022/07/01 03:06:57;;;;;;;49.83;22.98;;;;;;;;;;5005872;28;96884;-73
2022/07/01 03:09:24;;;;;;;49.03;22.98;;;;;;;;;;5008088;28;95321;-73
2022/07/01 03:11:50;;;;;;;50.10;22.42;;;;;;;;;;5007417;28;97698;-73
2022/07/01 03:14:17;;;;;;;48.78;23.25;;;;;;;;;;5007897;28;96759;-73
2022/07/01 03:16:43;;;;;;;55.00;23.02;;;;;;;;;;5006394;28;95397;-73
2022/07/01 03:19:10;;;;;;;51.88;23.73;;;;;;;;;;5004381;28;97474;-73
2022/07/01 03:21:36;;;;;;;51.35;22.92;;;;;;;;;;4987803;28;95461;-73
2022/07/01 03:24:03;;;;;;;54.40;22.92;;;;;;;;;;4992543;28;97484;-73
2022/07/01 03:26:30;;;;;;;55.08;24.02;;;;;;;;;;5003700;28;98085;-73
2022/07/01 03:29:03;;;;;;;63.95;23.92;;;;;;;;;;5006821;28;95757;-73
2022/07/01 03:31:31;;;;;;;56.03;25.55;;;;;;;;;;5006668;28;97322;-73
2022/07/01 03:33:57;;;;;;;57.50;24.33;;;;;;;;;;5006175;28;96218;-73
2022/07/01 03:36:24;;;;;;;61.88;25.85;;;;;;;;;;5003224;28;95625;-73
2022/07/01 03:38:51;;;;;;;58.13;25.73;;;;;;;;;;5011589;28;96870;-73
2022/07/01 03:41:17;;;;;;;60.08;25.65;;;;;;;;;;5011139;28;95855;-73
2022/07/01 03:43:43;;;;;;;59.80;25.92;;;;;;;;;;5009132;28;99727;-73
2022/07/01 03:46:12;;;;;;;63.47;26.55;;;;;;;;;;5011418;28;97612;-73
2022/07/01 03:48:39;;;;;;;60.95;25.08;;;;;;;;;;5011211;28;95401;-73
2022/07/01 03:51:08;;;;;;;67.15;26.63;;;;;;;;;;5007239;28;97359;-72
2022/07/01 03:56:20;;;;;;;62.42;26.33;;;;;;;;;;5007809;28;95648;-73
2022/07/01 03:58:46;;;;;;;63.10;26.48;;;;;;;;;;5013353;28;96752;-73
2022/07/01 04:01:12;;;;;;;57.47;24.75;;;;;;;;;;5011545;28;95513;-72
2022/07/01 04:03:39;;;;;;;56.35;23.80;;;;;;;;;;5010837;28;96472;-73
2022/07/01 04:06:05;;;;;;;63.95;26.35;;;;;;;;;;5009341;28;97496;-73
2022/07/01 04:08:32;;;;;;;66.05;26.15;;;;;;;;;;5009813;28;95199;-73
2022/07/01 04:10:58;;;;;;;59.67;24.90;;;;;;;;;;5010664;28;96890;-73
2022/07/01 04:13:25;;;;;;;59.42;25.63;;;;;;;;;;5011085;28;96555;-73
2022/07/01 04:15:57;;;;;;;63.83;25.52;;;;;;;;;;5010995;28;95390;-73
2022/07/01 04:18:23;;;;;;;58.28;24.45;;;;;;;;;;5007047;28;96964;-73
2022/07/01 04:23:35;;;;;;;61.67;24.98;;;;;;;;;;4990508;28;96857;-73
2022/07/01 04:26:02;;;;;;;55.55;23.77;;;;;;;;;;5004243;28;96628;-73
2022/07/01 20:05:21;;;;;;;3.63;1.73;;;;;;;;;;5045157;27;95938;-75
2022/07/01 20:07:47;;;;;;;5.53;2.17;;;;;;;;;;5020290;28;97382;-75
2022/07/01 20:10:13;;;;;;;2.97;1.77;;;;;;;;;;5038010;27;95222;-75
2022/07/01 20:12:40;;;;;;;3.55;2.33;;;;;;;;;;5023012;28;97086;-75
2022/07/01 20:15:07;;;;;;;4.85;1.77;;;;;;;;;;5024505;28;97877;-74
2022/07/01 20:17:33;;;;;;;4.55;1.70;;;;;;;;;;5022546;28;95704;-75
2022/07/01 20:20:01;;;;;;;5.53;2.15;;;;;;;;;;5030657;27;96763;-74
2022/07/01 20:22:27;;;;;;;11.20;1.98;;;;;;;;;;5032075;27;98022;-74
2022/07/01 20:24:53;;;;;;;3.95;1.73;;;;;;;;;;5027164;28;95588;-75
2022/07/01 20:27:20;;;;;;;7.32;2.20;;;;;;;;;;5022940;28;97318;-74
2022/07/01 20:29:46;;;;;;;5.25;2.00;;;;;;;;;;5029894;27;95700;-74
2022/07/01 20:32:12;;;;;;;3.40;1.80;;;;;;;;;;5024383;27;96366;-75
2022/07/01 20:34:39;;;;;;;6.63;1.92;;;;;;;;;;5020968;28;96600;-75
2022/07/01 20:37:06;;;;;;;8.68;2.10;;;;;;;;;;5024055;28;95271;-74
2022/07/01 20:39:32;;;;;;;7.80;2.17;;;;;;;;;;5013486;27;95906;-75
2022/07/01 20:41:59;;;;;;;6.30;2.25;;;;;;;;;;5027521;27;97312;-74
2022/07/01 20:44:25;;;;;;;6.55;2.25;;;;;;;;;;5020115;27;95907;-75
2022/07/01 20:46:51;;;;;;;6.97;2.10;;;;;;;;;;5027301;28;96854;-75
2022/07/01 20:49:18;;;;;;;8.30;2.05;;;;;;;;;;5007906;28;95539;-74
2022/07/01 20:51:44;;;;;;;4.90;2.13;;;;;;;;;;5028016;27;95788;-75
2022/07/01 20:54:11;;;;;;;6.55;2.03;;;;;;;;;;5019536;28;97465;-75
2022/07/01 20:56:38;;;;;;;4.38;2.15;;;;;;;;;;5022740;28;97149;-75
2022/07/01 20:59:04;;;;;;;8.48;2.10;;;;;;;;;;5023924;28;97578;-75
2022/07/01 21:01:51;;;;;;;5.78;2.22;;;;;;;;;;5022907;27;98648;-75
2022/07/01 21:04:17;;;;;;;5.53;2.00;;;;;;;;;;5034354;27;95562;-75
2022/07/01 21:06:43;;;;;;;3.60;1.80;;;;;;;;;;5044185;27;96655;-75
2022/07/01 21:09:11;;;;;;;8.90;2.00;;;;;;;;;;5036037;27;97127;-74
2022/07/01 21:11:37;;;;;;;7.93;2.00;;;;;;;;;;5052393;27;96315;-73
2022/07/01 21:14:04;;;;;;;5.72;2.03;;;;;;;;;;5044139;27;97334;-73
2022/07/01 21:16:30;;;;;;;6.32;2.35;;;;;;;;;;5028619;27;95517;-73
2022/07/01 21:18:57;;;;;;;7.00;2.38;;;;;;;;;;5030179;28;97144;-74
2022/07/01 21:21:23;;;;;;;3.95;2.30;;;;;;;;;;5033084;27;96080;-73
2022/07/01 21:23:49;;;;;;;8.55;2.40;;;;;;;;;;5027785;28;96595;-72
2022/07/01 21:26:16;;;;;;;6.30;2.15;;;;;;;;;;5031057;28;96883;-73
2022/07/01 21:28:42;;;;;;;6.50;2.20;;;;;;;;;;5030243;28;97362;-72
2022/07/01 21:31:08;;;;;;;4.88;2.47;;;;;;;;;;5015086;28;95372;-74
2022/07/01 21:33:35;;;;;;;5.43;2.50;;;;;;;;;;5034822;27;97000;-73
2022/07/01 21:36:03;;;;;;;6.38;2.40;;;;;;;;;;5035106;27;95672;-74
2022/07/01 21:38:30;;;;;;;9.15;2.67;;;;;;;;;;5029462;28;96720;-74
2022/07/01 21:40:57;;;;;;;4.20;2.35;;;;;;;;;;5030585;28;96267;-75
2022/07/01 21:43:23;;;;;;;4.45;2.42;;;;;;;;;;5031407;27;96809;-74
2022/07/01 21:45:55;;;;;;;5.15;2.50;;;;;;;;;;5033068;27;96880;-74
2022/07/01 21:48:23;;;;;;;5.10;3.00;;;;;;;;;;5030935;28;97376;-74
2022/07/01 21:50:49;;;;;;;11.68;2.90;;;;;;;;;;5011197;28;95545;-75
2022/07/01 21:53:17;;;;;;;5.55;2.70;;;;;;;;;;5013082;28;96791;-74
2022/07/01 21:55:45;;;;;;;7.53;3.00;;;;;;;;;;5029517;27;95325;-74
2022/07/01 21:58:14;;;;;;;7.45;2.88;;;;;;;;;;5030484;28;95935;-74
2022/07/01 22:00:40;;;;;;;6.90;2.78;;;;;;;;;;5029871;28;97559;-73
2022/07/01 22:03:07;;;;;;;4.40;2.67;;;;;;;;;;5029382;28;95479;-74
2022/07/01 22:08:19;;;;;;;5.97;2.58;;;;;;;;;;5050882;27;97447;-73
2022/07/01 22:10:46;;;;;;;7.72;2.80;;;;;;;;;;5031412;27;95906;-74
2022/07/01 22:13:13;;;;;;;6.68;2.92;;;;;;;;;;5024804;28;95982;-75
2022/07/01 22:15:39;;;;;;;7.07;2.95;;;;;;;;;;5033078;27;95182;-74
2022/07/01 22:18:06;;;;;;;8.10;3.10;;;;;;;;;;5051233;27;96804;-75
2022/07/01 22:20:35;;;;;;;14.98;3.47;;;;;;;;;;5031861;27;97778;-74
2022/07/01 22:23:01;;;;;;;10.05;3.78;;;;;;;;;;5029197;28;95499;-75
2022/07/01 22:25:28;;;;;;;7.18;3.95;;;;;;;;;;5029613;28;96981;-74
2022/07/01 22:27:54;;;;;;;7.88;3.47;;;;;;;;;;5028924;27;97134;-74
2022/07/01 22:30:21;;;;;;;7.78;3.85;;;;;;;;;;5028857;28;95374;-74
2022/07/01 22:32:48;;;;;;;9.90;4.15;;;;;;;;;;5036330;27;96723;-74
2022/07/01 22:35:15;;;;;;;9.48;3.97;;;;;;;;;;5032872;28;97424;-74
2022/07/01 22:37:42;;;;;;;7.95;4.22;;;;;;;;;;5030002;28;96856;-73
2022/07/01 22:40:11;;;;;;;8.52;3.88;;;;;;;;;;5029152;28;97295;-74
2022/07/01 22:42:37;;;;;;;6.70;4.00;;;;;;;;;;5038934;27;95759;-74
2022/07/01 22:45:04;;;;;;;8.65;3.70;;;;;;;;;;5022165;28;96782;-74
2022/07/01 22:47:40;;;;;;;6.75;4.05;;;;;;;;;;5009621;28;97180;-73
2022/07/01 22:50:18;;;;;;;7.65;4.05;;;;;;;;;;5027062;28;95720;-73
2022/07/01 22:52:54;;;;;;;6.93;3.80;;;;;;;;;;5026547;27;97281;-73
2022/07/01 22:55:39;;;;;;;7.15;3.75;;;;;;;;;;5012110;27;96457;-73
2022/07/01 22:58:09;;;;;;;6.75;4.22;;;;;;;;;;5022197;28;95517;-73
2022/07/01 23:00:37;;;;;;;9.07;3.92;;;;;;;;;;5028407;28;97561;-73
2022/07/01 23:03:07;;;;;;;8.07;3.90;;;;;;;;;;5016485;28;95423;-73
2022/07/01 23:05:33;;;;;;;11.68;4.38;;;;;;;;;;5029453;28;96730;-73
2022/07/01 23:08:00;;;;;;;8.55;3.85;;;;;;;;;;5028515;28;97129;-73
2022/07/01 23:10:47;;;;;;;6.00;3.50;;;;;;;;;;5011114;28;95351;-73
2022/07/01 23:13:37;;;;;;;8.45;3.88;;;;;;;;;;5024057;27;97085;-73
2022/07/01 23:18:49;;;;;;;10.15;3.92;;;;;;;;;;5023929;28;95745;-73
2022/07/01 23:21:16;;;;;;;11.02;4.03;;;;;;;;;;5029212;28;97235;-73
2022/07/01 23:23:44;;;;;;;11.55;3.97;;;;;;;;;;5031952;27;95276;-72
2022/07/01 23:26:10;;;;;;;13.35;4.43;;;;;;;;;;5024506;28;97059;-73
2022/07/01 23:28:38;;;;;;;8.02;3.90;;;;;;;;;;5029128;28;97525;-73
2022/07/01 23:31:05;;;;;;;7.90;4.20;;;;;;;;;;5029410;28;95075;-73
2022/07/01 23:33:32;;;;;;;7.55;4.10;;;;;;;;;;5030617;27;96328;-73
2022/07/01 23:35:58;;;;;;;8.90;4.30;;;;;;;;;;5027618;28;97271;-73
2022/07/01 23:38:25;;;;;;;7.07;3.83;;;;;;;;;;5028653;28;95748;-73
2022/07/01 23:41:14;;;;;;;11.98;4.32;;;;;;;;;;5029101;28;95587;-72
2022/07/01 23:43:38;;;;;;;8.35;4.07;;;;;;;;;;5038688;27;97030;-73
2022/07/01 23:46:04;;;;;;;8.95;4.50;;;;;;;;;;5015880;28;96732;-74
2022/07/01 23:48:32;;;;;;;8.20;4.50;;;;;;;;;;5009110;28;97395;-73
2022/07/01 23:50:58;;;;;;;7.90;4.40;;;;;;;;;;5009291;28;95707;-74
2022/07/01 23:53:25;;;;;;;9.35;4.72;;;;;;;;;;5028248;27;96886;-74
2022/07/01 23:55:51;;;;;;;9.25;5.05;;;;;;;;;;5023459;28;96911;-74
2022/07/01 23:58:17;;;;;;;8.90;4.90;;;;;;;;;;5028295;28;96040;-74
